createdAt,value
2018-08-23T00:00:51.421Z,7.10
2018-08-23T00:03:25.133Z,6.93
2018-08-23T00:05:54.996Z,6.60
2018-08-23T00:08:23.906Z,6.63
2018-08-23T00:10:53.194Z,7.00
2018-08-23T00:13:22.405Z,6.87
2018-08-23T00:15:51.044Z,7.33
2018-08-23T00:18:19.563Z,7.57
2018-08-23T00:20:48.378Z,7.47
2018-08-23T00:23:16.912Z,6.40
2018-08-23T00:25:45.484Z,7.90
2018-08-23T00:28:14.256Z,7.90
2018-08-23T00:32:13.180Z,7.90
2018-08-23T00:34:41.935Z,8.40
2018-08-23T00:37:12.880Z,8.23
2018-08-23T00:39:41.345Z,8.10
2018-08-23T00:42:11.474Z,8.00
2018-08-23T00:45:05.337Z,8.10
2018-08-23T00:47:34.398Z,8.37
2018-08-23T00:50:04.004Z,8.07
2018-08-23T00:52:48.203Z,8.17
2018-08-23T00:55:23.767Z,8.37
2018-08-23T00:57:52.263Z,8.00
2018-08-23T01:00:21.934Z,7.80
2018-08-23T01:02:51.587Z,8.20
2018-08-23T01:05:25.447Z,8.50
2018-08-23T01:07:54.296Z,8.30
2018-08-23T01:10:22.839Z,8.37
2018-08-23T01:12:57.867Z,8.40
2018-08-23T01:15:26.907Z,8.00
2018-08-23T01:18:08.486Z,7.80
2018-08-23T01:20:37.627Z,8.60
2018-08-23T01:23:06.191Z,9.17
2018-08-23T01:25:42.010Z,8.47
2018-08-23T01:28:10.920Z,9.10
2018-08-23T01:30:39.952Z,8.47
2018-08-23T01:33:10.783Z,10.30
2018-08-23T01:35:41.227Z,9.57
2018-08-23T01:38:09.989Z,7.37
2018-08-23T01:40:38.634Z,8.80
2018-08-23T01:43:07.463Z,9.33
2018-08-23T01:45:36.090Z,9.70
2018-08-23T01:48:06.942Z,8.13
2018-08-23T01:50:35.739Z,9.53
2018-08-23T01:53:04.341Z,9.13
2018-08-23T01:55:32.816Z,9.40
2018-08-23T01:58:01.646Z,9.10
2018-08-23T02:00:33.235Z,9.57
2018-08-23T02:03:02.623Z,9.67
2018-08-23T02:05:31.481Z,9.23
2018-08-23T02:08:05.558Z,8.80
2018-08-23T02:10:34.111Z,9.90
2018-08-23T02:13:02.968Z,9.90
2018-08-23T02:15:41.611Z,9.93
2018-08-23T02:18:10.427Z,9.43
2018-08-23T02:20:38.919Z,8.37
2018-08-23T02:23:07.401Z,9.23
2018-08-23T02:25:36.219Z,11.83
2018-08-23T02:28:09.900Z,11.43
2018-08-23T02:30:56.113Z,10.90
2018-08-23T02:33:25.235Z,10.73
2018-08-23T02:36:19.062Z,10.90
2018-08-23T02:38:50.241Z,10.97
2018-08-23T02:41:18.789Z,11.83
2018-08-23T02:43:47.725Z,11.53
2018-08-23T02:46:16.608Z,12.73
2018-08-23T02:48:45.231Z,14.87
2018-08-23T02:51:14.017Z,13.30
2018-08-23T02:53:43.991Z,13.00
2018-08-23T02:56:14.601Z,12.80
2018-08-23T02:58:58.172Z,14.10
2018-08-23T03:01:28.298Z,12.67
2018-08-23T03:04:08.595Z,13.03
2018-08-23T03:07:10.424Z,14.00
2018-08-23T03:09:41.173Z,12.57
2018-08-23T03:12:11.655Z,12.63
2018-08-23T03:14:40.809Z,14.93
2018-08-23T03:17:18.124Z,13.60
2018-08-23T03:20:04.596Z,15.07
2018-08-23T03:22:34.265Z,15.23
2018-08-23T03:25:04.967Z,14.07
2018-08-23T03:27:33.593Z,15.03
2018-08-23T03:30:04.033Z,14.57
2018-08-23T03:32:32.572Z,15.53
2018-08-23T03:35:01.871Z,15.73
2018-08-23T03:37:30.356Z,15.03
2018-08-23T03:39:58.969Z,12.07
2018-08-23T03:42:28.138Z,14.50
2018-08-23T03:44:57.574Z,14.47
2018-08-23T03:47:26.413Z,15.70
2018-08-23T03:49:55.213Z,16.00
2018-08-23T03:52:38.863Z,16.00
2018-08-23T03:55:08.577Z,17.60
2018-08-23T03:57:42.078Z,16.10
2018-08-23T04:00:10.608Z,16.57
2018-08-23T04:02:39.468Z,15.90
2018-08-23T04:05:13.867Z,15.90
2018-08-23T04:07:43.612Z,17.27
2018-08-23T04:10:12.518Z,17.80
2018-08-23T04:12:42.303Z,17.50
2018-08-23T04:15:18.523Z,19.30
2018-08-23T04:17:48.049Z,17.57
2018-08-23T04:20:17.009Z,17.80
2018-08-23T04:22:45.544Z,19.90
2018-08-23T04:25:14.329Z,15.70
2018-08-23T04:27:42.884Z,14.53
2018-08-23T04:30:11.488Z,13.30
2018-08-23T04:32:45.384Z,13.10
2018-08-23T04:35:19.376Z,13.73
2018-08-23T04:37:48.467Z,13.10
2018-08-23T04:40:17.023Z,13.60
2018-08-23T04:42:45.629Z,57.20
2018-08-23T04:45:19.208Z,16.20
2018-08-23T04:48:19.308Z,12.73
2018-08-23T04:50:48.304Z,13.87
2018-08-23T04:53:17.146Z,12.70
2018-08-23T04:55:45.660Z,13.50
2018-08-23T04:58:14.547Z,13.60
2018-08-23T05:00:43.187Z,13.07
2018-08-23T05:03:11.971Z,12.53
2018-08-23T05:05:40.791Z,13.20
2018-08-23T05:08:09.415Z,65.47
2018-08-23T05:10:37.991Z,20.83
2018-08-23T05:13:06.893Z,13.40
2018-08-23T05:15:35.559Z,12.27
2018-08-23T05:18:06.257Z,13.13
2018-08-23T05:20:35.064Z,12.97
2018-08-23T05:23:04.129Z,11.97
2018-08-23T05:25:32.649Z,12.00
2018-08-23T05:28:19.510Z,12.27
2018-08-23T05:30:48.710Z,15.13
2018-08-23T05:33:19.360Z,58.90
2018-08-23T05:35:48.092Z,17.27
2018-08-23T05:38:17.423Z,13.53
2018-08-23T05:40:51.127Z,13.17
2018-08-23T05:43:19.683Z,12.43
2018-08-23T05:45:53.575Z,12.47
2018-08-23T05:48:36.402Z,13.50
2018-08-23T05:51:13.240Z,13.57
2018-08-23T05:53:44.523Z,13.50
2018-08-23T05:56:13.173Z,12.53
2018-08-23T05:58:41.699Z,13.97
2018-08-23T06:01:10.567Z,13.77
2018-08-23T06:03:39.300Z,12.73
2018-08-23T06:06:08.251Z,13.93
2018-08-23T06:08:37.256Z,16.30
2018-08-23T06:11:09.656Z,18.03
2018-08-23T06:13:38.440Z,15.80
2018-08-23T06:16:07.362Z,14.93
2018-08-23T06:18:35.929Z,17.00
2018-08-23T06:21:04.499Z,15.90
2018-08-23T06:23:53.895Z,16.83
2018-08-23T06:26:31.365Z,17.87
2018-08-23T06:29:00.130Z,15.10
2018-08-23T06:31:28.752Z,15.00
2018-08-23T06:33:57.408Z,18.60
2018-08-23T06:36:26.297Z,17.30
2018-08-23T06:38:59.774Z,18.10
2018-08-23T06:41:28.956Z,16.40
2018-08-23T06:43:57.843Z,14.30
2018-08-23T06:46:26.427Z,16.10
2018-08-23T06:48:55.046Z,14.43
2018-08-23T06:51:23.868Z,14.30
2018-08-23T06:53:54.393Z,14.23
2018-08-23T06:56:22.991Z,14.37
2018-08-23T06:58:51.794Z,16.93
2018-08-23T07:01:33.279Z,13.67
2018-08-23T07:04:06.220Z,15.07
2018-08-23T07:06:36.037Z,14.27
2018-08-23T07:09:08.719Z,14.20
2018-08-23T07:11:37.656Z,17.17
2018-08-23T07:14:14.081Z,15.70
2018-08-23T07:16:43.899Z,17.07
2018-08-23T07:19:33.032Z,14.53
2018-08-23T07:22:03.772Z,14.77
2018-08-23T07:24:41.020Z,15.90
2018-08-23T07:27:11.900Z,15.70
2018-08-23T07:29:40.451Z,13.50
2018-08-23T07:32:13.206Z,12.97
2018-08-23T07:34:58.231Z,14.13
2018-08-23T07:37:27.223Z,13.50
2018-08-23T07:40:01.407Z,12.40
2018-08-23T07:42:32.597Z,12.13
2018-08-23T07:45:01.740Z,11.17
2018-08-23T07:47:31.022Z,12.10
2018-08-23T07:50:00.742Z,12.00
2018-08-23T07:52:30.965Z,10.13
2018-08-23T07:54:59.614Z,12.67
2018-08-23T07:57:32.030Z,10.50
2018-08-23T08:00:02.961Z,11.53
2018-08-23T08:02:31.495Z,13.23
2018-08-23T08:05:00.244Z,13.20
2018-08-23T08:07:31.000Z,13.10
2018-08-23T08:10:01.156Z,13.60
2018-08-23T08:12:38.762Z,12.60
2018-08-23T08:15:09.983Z,13.00
2018-08-23T08:17:38.614Z,14.00
2018-08-23T08:20:09.507Z,15.00
2018-08-23T08:22:38.654Z,15.30
2018-08-23T08:25:11.481Z,14.03
2018-08-23T08:27:40.457Z,15.50
2018-08-23T08:30:10.669Z,16.30
2018-08-23T08:32:39.167Z,18.73
2018-08-23T08:35:12.115Z,15.83
2018-08-23T08:37:40.654Z,15.80
2018-08-23T08:40:24.608Z,16.50
2018-08-23T08:42:53.442Z,15.23
2018-08-23T08:45:23.252Z,13.30
2018-08-23T08:47:51.871Z,14.30
2018-08-23T08:50:20.971Z,12.60
2018-08-23T08:52:49.452Z,12.77
2018-08-23T08:55:18.196Z,12.53
2018-08-23T08:57:47.743Z,12.20
2018-08-23T09:00:16.316Z,13.70
2018-08-23T09:02:45.038Z,11.13
2018-08-23T09:05:13.885Z,12.60
2018-08-23T09:07:44.243Z,11.50
2018-08-23T09:10:12.814Z,10.97
2018-08-23T09:12:47.643Z,10.73
2018-08-23T09:15:16.253Z,9.03
2018-08-23T09:17:46.025Z,10.43
2018-08-23T09:20:19.609Z,10.03
2018-08-23T09:22:56.123Z,9.23
2018-08-23T09:25:28.400Z,9.67
2018-08-23T09:27:57.025Z,9.90
2018-08-23T09:30:27.754Z,9.87
2018-08-23T09:32:56.892Z,9.70
2018-08-23T09:35:30.971Z,9.77
2018-08-23T09:38:00.793Z,10.80
2018-08-23T09:40:29.951Z,10.93
2018-08-23T09:43:02.582Z,10.20
2018-08-23T09:45:32.435Z,9.10
2018-08-23T09:48:01.016Z,9.80
2018-08-23T09:50:30.332Z,9.27
2018-08-23T09:52:59.207Z,9.30
2018-08-23T09:55:31.497Z,8.50
2018-08-23T09:58:00.625Z,9.00
2018-08-23T10:00:34.507Z,8.87
2018-08-23T10:03:08.404Z,8.43
2018-08-23T10:05:48.712Z,8.97
2018-08-23T10:08:22.681Z,7.40
2018-08-23T10:10:56.677Z,8.60
2018-08-23T10:13:31.032Z,6.73
2018-08-23T10:16:04.876Z,5.27
2018-08-23T10:18:38.838Z,5.50
2018-08-23T10:21:07.511Z,6.33
2018-08-23T10:23:36.163Z,4.10
2018-08-23T10:26:11.824Z,4.53
2018-08-23T10:28:53.248Z,3.73
2018-08-23T10:31:22.179Z,3.67
2018-08-23T10:33:51.035Z,4.50
2018-08-23T10:36:19.639Z,4.13
2018-08-23T10:38:49.603Z,3.60
2018-08-23T10:41:18.324Z,3.33
2018-08-23T10:43:47.704Z,3.83
2018-08-23T10:46:17.306Z,3.73
2018-08-23T10:48:45.828Z,4.17
2018-08-23T10:51:14.374Z,3.50
2018-08-23T10:53:43.194Z,4.57
2018-08-23T10:56:11.745Z,3.90
2018-08-23T10:58:40.284Z,4.13
2018-08-23T11:01:09.091Z,4.87
2018-08-23T11:03:37.644Z,2.80
2018-08-23T11:06:06.342Z,6.83
2018-08-23T11:08:36.673Z,2.93
2018-08-23T11:11:10.566Z,3.47
2018-08-23T11:13:44.284Z,3.57
2018-08-23T11:16:18.336Z,3.20
2018-08-23T11:18:53.794Z,3.17
2018-08-23T11:21:22.753Z,3.23
2018-08-23T11:23:51.342Z,2.83
2018-08-23T11:26:21.387Z,4.20
2018-08-23T11:28:50.631Z,3.17
2018-08-23T11:31:24.396Z,3.00
2018-08-23T11:33:53.230Z,3.60
2018-08-23T11:36:21.921Z,3.20
2018-08-23T11:41:47.995Z,3.00
2018-08-23T11:44:17.772Z,3.60
2018-08-23T11:46:46.786Z,3.57
2018-08-23T11:49:15.899Z,2.90
2018-08-23T11:51:44.634Z,3.40
2018-08-23T11:54:13.271Z,3.23
2018-08-23T11:56:42.368Z,2.83
2018-08-23T11:59:11.258Z,3.33
2018-08-23T12:01:40.023Z,2.60
2018-08-23T12:04:09.051Z,3.33
2018-08-23T13:34:34.846Z,3.37
2018-08-23T13:37:11.901Z,2.97
2018-08-23T13:39:41.589Z,2.90
2018-08-23T13:42:11.024Z,3.30
2018-08-23T13:44:40.225Z,2.70
2018-08-23T13:47:09.225Z,2.60
2018-08-23T13:49:38.467Z,2.40
2018-08-23T13:52:07.536Z,2.93
2018-08-23T13:54:37.082Z,2.30
2018-08-23T13:57:05.843Z,2.10
2018-08-23T13:59:34.950Z,2.73
2018-08-23T14:02:05.097Z,2.30
2018-08-23T14:04:33.919Z,2.20
2018-08-23T14:07:03.651Z,2.50
2018-08-23T14:09:33.124Z,2.53
2018-08-23T14:12:03.976Z,2.70
2018-08-23T14:14:33.053Z,2.03
2018-08-23T14:17:05.889Z,2.57
2018-08-23T14:19:34.926Z,2.47
2018-08-23T14:22:04.787Z,2.43
2018-08-23T14:24:34.135Z,2.20
2018-08-23T14:27:03.358Z,2.10
2018-08-23T14:29:32.524Z,2.10
2018-08-23T14:32:03.875Z,2.20
2018-08-23T14:34:33.214Z,1.80
2018-08-23T14:37:18.286Z,1.87
2018-08-23T14:40:05.702Z,2.33
2018-08-23T14:42:34.837Z,2.20
2018-08-23T14:45:05.702Z,2.07
2018-08-23T14:47:39.833Z,2.10
2018-08-23T14:50:08.584Z,2.40
2018-08-23T14:52:44.843Z,2.50
2018-08-23T14:55:18.437Z,1.83
2018-08-23T14:57:47.592Z,2.00
2018-08-23T15:00:17.059Z,2.20
2018-08-23T15:02:46.084Z,6.20
2018-08-23T15:05:15.189Z,4.70
2018-08-23T15:07:44.521Z,2.60
2018-08-23T15:10:14.453Z,2.70
2018-08-23T15:12:43.712Z,2.50
2018-08-23T15:15:13.155Z,2.60
2018-08-23T15:17:42.307Z,2.30
2018-08-23T15:20:11.540Z,2.93
2018-08-23T15:22:40.934Z,2.20
2018-08-23T15:25:10.418Z,2.03
2018-08-23T15:27:52.136Z,2.40
2018-08-23T15:30:21.513Z,2.70
2018-08-23T15:32:50.737Z,2.10
2018-08-23T15:35:19.721Z,2.53
2018-08-23T15:37:49.097Z,2.50
2018-08-23T15:40:19.124Z,2.20
2018-08-23T15:42:48.069Z,2.20
2018-08-23T15:45:17.887Z,2.70
2018-08-23T15:48:01.366Z,2.60
2018-08-23T15:50:30.772Z,3.00
2018-08-23T15:53:00.039Z,2.30
2018-08-23T15:55:29.332Z,2.20
2018-08-23T15:57:58.408Z,2.73
2018-08-23T16:00:31.386Z,2.57
2018-08-23T16:03:00.454Z,2.63
2018-08-23T16:05:29.720Z,2.20
2018-08-23T16:07:58.883Z,2.57
2018-08-23T16:10:27.863Z,2.60
2018-08-23T16:13:07.059Z,2.47
2018-08-23T16:15:35.931Z,2.77
2018-08-23T16:18:13.909Z,2.70
2018-08-23T16:20:55.438Z,2.20
2018-08-23T16:23:24.304Z,2.30
2018-08-23T16:25:54.459Z,2.67
2018-08-23T16:28:23.321Z,2.17
2018-08-23T16:30:52.229Z,2.13
2018-08-23T16:33:21.096Z,2.50
2018-08-23T16:35:50.010Z,2.77
2018-08-23T16:38:21.816Z,2.80
2018-08-23T16:40:50.697Z,2.20
2018-08-23T16:43:19.594Z,2.63
2018-08-23T16:45:48.608Z,2.43
2018-08-23T16:48:17.916Z,2.50
2018-08-23T16:50:46.808Z,3.20
2018-08-23T16:53:16.381Z,2.73
2018-08-23T16:55:45.274Z,2.97
2018-08-23T16:58:14.061Z,3.20
2018-08-23T17:00:43.227Z,3.10
2018-08-23T17:03:12.028Z,3.00
2018-08-23T17:05:41.011Z,2.80
2018-08-23T17:08:10.287Z,3.17
2018-08-23T17:10:45.995Z,3.70
2018-08-23T17:13:47.331Z,3.33
2018-08-23T17:16:21.874Z,2.97
2018-08-23T17:18:51.272Z,3.47
2018-08-23T17:21:20.705Z,3.03
2018-08-23T17:23:51.082Z,3.20
2018-08-23T17:26:20.400Z,3.13
2018-08-23T17:28:50.101Z,3.40
2018-08-23T17:31:19.342Z,3.10
2018-08-23T17:33:48.438Z,3.80
2018-08-23T17:36:18.319Z,3.60
2018-08-23T17:38:48.315Z,3.07
2018-08-23T17:44:01.536Z,3.40
2018-08-23T17:46:30.444Z,3.67
2018-08-23T17:48:59.516Z,11.27
2018-08-23T17:51:28.823Z,23.97
2018-08-23T17:53:58.104Z,5.40
2018-08-23T17:56:27.156Z,3.17
2018-08-23T17:58:56.498Z,3.10
2018-08-23T18:01:25.591Z,3.00
2018-08-23T18:03:54.261Z,3.50
2018-08-23T18:06:23.565Z,3.70
2018-08-23T18:08:52.476Z,3.93
2018-08-23T18:11:21.761Z,3.40
2018-08-23T18:13:51.049Z,4.03
2018-08-23T18:16:25.170Z,4.50
2018-08-23T18:18:54.124Z,3.90
2018-08-23T18:21:23.445Z,3.67
2018-08-23T18:23:52.624Z,3.50
2018-08-23T18:26:21.531Z,4.00
2018-08-23T18:28:50.886Z,4.30
2018-08-23T18:31:19.971Z,13.47
2018-08-23T18:33:49.142Z,5.00
2018-08-23T18:36:21.558Z,5.23
2018-08-23T18:38:50.586Z,6.20
2018-08-23T18:41:19.588Z,6.40
2018-08-23T18:43:49.028Z,4.60
2018-08-23T18:46:18.641Z,4.90
2018-08-23T18:48:47.592Z,4.47
2018-08-23T18:51:17.006Z,3.97
2018-08-23T18:53:46.125Z,5.07
2018-08-23T18:56:15.013Z,4.43
2018-08-23T18:58:44.383Z,4.27
2018-08-23T19:01:13.436Z,4.87
2018-08-23T19:03:42.438Z,4.50
2018-08-23T19:06:11.735Z,4.90
2018-08-23T19:08:40.779Z,5.63
2018-08-23T19:11:09.679Z,5.80
2018-08-23T19:13:38.921Z,5.40
2018-08-23T19:16:12.894Z,5.60
2018-08-23T19:18:41.872Z,4.70
2018-08-23T19:21:10.994Z,6.53
2018-08-23T19:23:39.931Z,6.20
2018-08-23T19:26:09.048Z,5.53
2018-08-23T19:28:38.367Z,6.60
2018-08-23T19:31:07.243Z,5.77
2018-08-23T19:33:36.123Z,6.70
2018-08-23T19:36:06.412Z,6.53
2018-08-23T19:38:35.272Z,7.60
2018-08-23T19:41:04.410Z,5.33
2018-08-23T19:43:33.814Z,5.60
2018-08-23T19:46:07.806Z,6.37
2018-08-23T19:48:37.100Z,7.63
2018-08-23T19:51:06.472Z,7.30
2018-08-23T19:53:35.332Z,6.70
2018-08-23T19:56:05.464Z,6.73
2018-08-23T19:58:34.828Z,5.77
2018-08-23T20:01:05.311Z,5.00
2018-08-23T20:03:35.779Z,5.17
2018-08-23T20:06:05.319Z,5.20
2018-08-23T20:08:34.301Z,4.90
2018-08-23T20:11:03.997Z,6.00
2018-08-23T20:13:32.981Z,5.23
2018-08-23T20:16:03.147Z,5.87
2018-08-23T20:18:32.528Z,5.73
2018-08-23T20:21:01.689Z,6.00
2018-08-23T20:23:30.635Z,5.30
2018-08-23T20:26:00.105Z,6.07
2018-08-23T20:28:29.075Z,6.00
2018-08-23T20:30:58.053Z,5.00
2018-08-23T20:33:27.288Z,4.77
2018-08-23T20:35:56.499Z,6.87
2018-08-23T20:38:25.444Z,5.60
2018-08-23T20:40:54.926Z,7.93
2018-08-23T20:43:23.848Z,14.50
2018-08-23T20:45:52.914Z,4.37
2018-08-23T20:48:22.179Z,5.83
2018-08-23T20:50:51.154Z,5.37
2018-08-23T20:53:19.948Z,5.33
2018-08-23T20:55:49.210Z,5.40
2018-08-23T20:58:18.589Z,5.40
2018-08-23T21:00:47.269Z,6.23
2018-08-23T21:03:16.503Z,7.67
2018-08-23T21:05:45.459Z,8.17
2018-08-23T21:08:14.315Z,7.30
2018-08-23T21:10:43.557Z,6.50
2018-08-23T21:13:12.573Z,6.80
2018-08-23T21:15:41.503Z,6.83
2018-08-23T21:18:12.456Z,6.37
2018-08-23T21:20:42.107Z,7.10
2018-08-23T21:23:11.110Z,7.10
2018-08-23T21:25:42.740Z,6.93
2018-08-23T21:28:11.754Z,11.00
2018-08-23T21:30:40.755Z,11.30
2018-08-23T21:33:10.023Z,10.03
2018-08-23T21:35:39.063Z,7.80
2018-08-23T21:38:07.986Z,7.40
2018-08-23T21:40:37.236Z,7.43
2018-08-23T21:43:06.309Z,6.20
2018-08-23T21:45:35.545Z,6.37
2018-08-23T21:48:05.504Z,5.30
2018-08-23T21:50:34.524Z,11.20
2018-08-23T21:53:03.695Z,5.20
2018-08-23T21:55:36.938Z,6.07
2018-08-23T21:58:07.351Z,5.83
2018-08-23T22:00:41.609Z,4.80
2018-08-23T22:03:11.576Z,5.17
2018-08-23T22:05:41.183Z,5.43
2018-08-23T22:08:10.609Z,4.83
2018-08-23T22:10:40.139Z,5.60
2018-08-23T22:13:09.756Z,4.43
2018-08-23T22:15:43.715Z,4.70
2018-08-23T22:18:13.140Z,4.60
2018-08-23T22:20:42.324Z,4.00
2018-08-23T22:23:12.203Z,4.07
2018-08-23T22:25:41.671Z,4.60
2018-08-23T22:28:11.128Z,4.30
2018-08-23T22:30:40.629Z,4.23
2018-08-23T22:33:11.172Z,3.63
2018-08-23T22:35:40.158Z,5.00
2018-08-23T22:38:09.812Z,6.73
2018-08-23T22:40:39.055Z,4.77
2018-08-23T22:43:08.150Z,4.70
2018-08-23T22:45:37.305Z,9.40
2018-08-23T22:48:06.652Z,10.63
2018-08-23T22:50:35.536Z,10.23
2018-08-23T22:53:04.391Z,9.63
2018-08-23T22:55:33.683Z,7.60
2018-08-23T22:58:03.339Z,6.60
2018-08-23T23:00:37.265Z,5.27
2018-08-23T23:03:11.369Z,5.33
2018-08-23T23:05:40.312Z,5.60
2018-08-23T23:08:09.903Z,5.30
2018-08-23T23:10:40.214Z,4.93
2018-08-23T23:13:09.856Z,5.20
2018-08-23T23:15:38.696Z,5.80
2018-08-23T23:18:08.071Z,6.67
2018-08-23T23:20:39.051Z,9.10
2018-08-23T23:23:08.103Z,13.47
2018-08-23T23:25:37.831Z,12.50
2018-08-23T23:28:07.475Z,10.67
2018-08-23T23:30:36.627Z,7.13
2018-08-23T23:33:05.997Z,8.47
2018-08-23T23:35:35.262Z,7.13
2018-08-23T23:38:05.081Z,6.70
2018-08-23T23:40:34.582Z,6.10
2018-08-23T23:43:05.170Z,5.60
2018-08-23T23:45:34.063Z,5.80
2018-08-23T23:48:04.610Z,5.67
2018-08-23T23:50:33.493Z,5.20
2018-08-23T23:53:02.630Z,4.80
2018-08-23T23:55:31.804Z,4.80
2018-08-23T23:58:00.658Z,5.10
